Mason, South Dakota
Current Conditions -  °F | °C
As of 10:35 PM on Thursday 30 Oct 2014 (Local Time) from KSPF Reporting Station
Haze Haze  
Wind Chill: 27°   Ceiling: Unl
Heat Index: 27°   Visibility: 5mi
Dew Point: 27°   Wind: 0mph
Humidity: 100%   Direction: NA
Pressure: 30.42"   Gusts: NA
Location:  44.9293°N, 103.753°W
Report Text: KSPF 310435Z AUTO 00000KT 5SM BR CLR M03/M03 A3042 RMK AO2
Loading
Personal Weather Stations






























Interactive Weather Map
Tropical Storm Tracking
New forecast layout! Learn more

10-Day Weather Forecast

Advertisements
Track Severe Weather on mobile